sensor_id;sensor_type;location;lat;lon;timestamp;P1;durP1;ratioP1;P2;durP2;ratioP2
68744;SDS011;66104;45.456;11.064;2023-04-01T00:01:05;18.90;;;13.10;;
68744;SDS011;66104;45.456;11.064;2023-04-01T00:03:43;22.10;;;12.90;;
68744;SDS011;66104;45.456;11.064;2023-04-01T00:06:21;24.20;;;14.10;;
68744;SDS011;66104;45.456;11.064;2023-04-01T00:08:58;21.50;;;14.00;;
68744;SDS011;66104;45.456;11.064;2023-04-01T00:11:36;20.00;;;12.80;;
68744;SDS011;66104;45.456;11.064;2023-04-01T00:14:14;18.20;;;13.50;;
68744;SDS011;66104;45.456;11.064;2023-04-01T00:16:52;18.70;;;12.10;;
68744;SDS011;66104;45.456;11.064;2023-04-01T00:19:29;26.60;;;13.20;;
68744;SDS011;66104;45.456;11.064;2023-04-01T00:22:05;25.80;;;14.30;;
68744;SDS011;66104;45.456;11.064;2023-04-01T00:24:43;23.50;;;13.60;;
68744;SDS011;66104;45.456;11.064;2023-04-01T00:27:20;23.60;;;14.20;;
68744;SDS011;66104;45.456;11.064;2023-04-01T00:29:57;21.20;;;13.40;;
68744;SDS011;66104;45.456;11.064;2023-04-01T00:35:10;21.30;;;12.80;;
68744;SDS011;66104;45.456;11.064;2023-04-01T00:37:47;18.60;;;12.80;;
68744;SDS011;66104;45.456;11.064;2023-04-01T00:40:31;21.30;;;12.80;;
68744;SDS011;66104;45.456;11.064;2023-04-01T00:43:14;19.80;;;12.30;;
68744;SDS011;66104;45.456;11.064;2023-04-01T00:45:53;21.00;;;13.70;;
68744;SDS011;66104;45.456;11.064;2023-04-01T00:48:32;18.30;;;12.70;;
68744;SDS011;66104;45.456;11.064;2023-04-01T00:51:13;20.90;;;13.40;;
68744;SDS011;66104;45.456;11.064;2023-04-01T00:53:53;22.40;;;13.10;;
68744;SDS011;66104;45.456;11.064;2023-04-01T00:56:36;20.50;;;13.30;;
68744;SDS011;66104;45.456;11.064;2023-04-01T00:59:18;18.90;;;12.30;;
68744;SDS011;66104;45.456;11.064;2023-04-01T01:01:58;18.20;;;12.40;;
68744;SDS011;66104;45.456;11.064;2023-04-01T01:04:37;18.40;;;13.00;;
68744;SDS011;66104;45.456;11.064;2023-04-01T01:07:22;20.40;;;13.30;;
68744;SDS011;66104;45.456;11.064;2023-04-01T01:10:14;18.80;;;11.60;;
68744;SDS011;66104;45.456;11.064;2023-04-01T01:13:02;21.20;;;11.80;;
68744;SDS011;66104;45.456;11.064;2023-04-01T01:15:49;21.00;;;13.20;;
68744;SDS011;66104;45.456;11.064;2023-04-01T01:18:37;17.20;;;12.90;;
68744;SDS011;66104;45.456;11.064;2023-04-01T01:21:32;16.30;;;12.00;;
68744;SDS011;66104;45.456;11.064;2023-04-01T01:24:44;20.00;;;13.00;;
68744;SDS011;66104;45.456;11.064;2023-04-01T01:27:33;17.30;;;12.20;;
68744;SDS011;66104;45.456;11.064;2023-04-01T01:30:28;23.40;;;13.30;;
68744;SDS011;66104;45.456;11.064;2023-04-01T01:33:29;21.10;;;13.30;;
68744;SDS011;66104;45.456;11.064;2023-04-01T01:36:22;18.50;;;12.90;;
68744;SDS011;66104;45.456;11.064;2023-04-01T01:39:08;20.00;;;12.70;;
68744;SDS011;66104;45.456;11.064;2023-04-01T01:41:48;18.60;;;12.40;;
68744;SDS011;66104;45.456;11.064;2023-04-01T01:44:25;19.30;;;12.90;;
68744;SDS011;66104;45.456;11.064;2023-04-01T01:47:06;22.00;;;13.40;;
68744;SDS011;66104;45.456;11.064;2023-04-01T01:49:43;21.20;;;13.40;;
68744;SDS011;66104;45.456;11.064;2023-04-01T01:52:21;20.60;;;13.20;;
68744;SDS011;66104;45.456;11.064;2023-04-01T01:55:01;15.60;;;11.70;;
68744;SDS011;66104;45.456;11.064;2023-04-01T01:57:50;20.00;;;12.70;;
68744;SDS011;66104;45.456;11.064;2023-04-01T02:00:29;19.20;;;12.80;;
68744;SDS011;66104;45.456;11.064;2023-04-01T02:03:08;17.90;;;12.00;;
68744;SDS011;66104;45.456;11.064;2023-04-01T02:05:47;19.20;;;11.50;;
68744;SDS011;66104;45.456;11.064;2023-04-01T02:08:28;19.60;;;12.30;;
68744;SDS011;66104;45.456;11.064;2023-04-01T02:11:11;20.00;;;12.30;;
68744;SDS011;66104;45.456;11.064;2023-04-01T02:13:53;15.80;;;11.80;;
68744;SDS011;66104;45.456;11.064;2023-04-01T02:16:38;19.30;;;11.60;;
68744;SDS011;66104;45.456;11.064;2023-04-01T02:19:20;18.00;;;11.90;;
68744;SDS011;66104;45.456;11.064;2023-04-01T02:22:04;19.90;;;12.00;;
68744;SDS011;66104;45.456;11.064;2023-04-01T02:24:43;17.40;;;12.80;;
68744;SDS011;66104;45.456;11.064;2023-04-01T02:27:21;19.80;;;13.40;;
68744;SDS011;66104;45.456;11.064;2023-04-01T02:29:58;19.10;;;12.80;;
68744;SDS011;66104;45.456;11.064;2023-04-01T02:32:38;20.40;;;13.60;;
68744;SDS011;66104;45.456;11.064;2023-04-01T02:35:16;19.90;;;11.60;;
68744;SDS011;66104;45.456;11.064;2023-04-01T02:37:54;25.00;;;12.20;;
68744;SDS011;66104;45.456;11.064;2023-04-01T02:40:39;20.50;;;11.70;;
68744;SDS011;66104;45.456;11.064;2023-04-01T02:43:21;19.10;;;12.70;;
68744;SDS011;66104;45.456;11.064;2023-04-01T02:45:59;18.60;;;12.50;;
68744;SDS011;66104;45.456;11.064;2023-04-01T02:48:35;19.80;;;13.10;;
68744;SDS011;66104;45.456;11.064;2023-04-01T02:51:12;19.00;;;13.10;;
68744;SDS011;66104;45.456;11.064;2023-04-01T02:53:48;18.30;;;12.50;;
68744;SDS011;66104;45.456;11.064;2023-04-01T02:56:25;18.60;;;12.10;;
68744;SDS011;66104;45.456;11.064;2023-04-01T02:59:02;16.80;;;12.10;;
68744;SDS011;66104;45.456;11.064;2023-04-01T03:01:39;18.50;;;12.80;;
68744;SDS011;66104;45.456;11.064;2023-04-01T03:04:15;19.80;;;12.50;;
68744;SDS011;66104;45.456;11.064;2023-04-01T03:06:54;16.80;;;11.60;;
68744;SDS011;66104;45.456;11.064;2023-04-01T03:09:31;20.60;;;13.60;;
68744;SDS011;66104;45.456;11.064;2023-04-01T03:12:08;17.20;;;12.50;;
68744;SDS011;66104;45.456;11.064;2023-04-01T03:14:50;22.30;;;13.40;;
68744;SDS011;66104;45.456;11.064;2023-04-01T03:17:41;22.50;;;13.50;;
68744;SDS011;66104;45.456;11.064;2023-04-01T03:20:18;21.50;;;13.00;;
68744;SDS011;66104;45.456;11.064;2023-04-01T03:22:55;21.90;;;13.00;;
68744;SDS011;66104;45.456;11.064;2023-04-01T03:25:32;22.40;;;13.20;;
68744;SDS011;66104;45.456;11.064;2023-04-01T03:28:10;19.40;;;12.90;;
68744;SDS011;66104;45.456;11.064;2023-04-01T03:30:47;18.30;;;11.60;;
68744;SDS011;66104;45.456;11.064;2023-04-01T03:33:24;24.70;;;12.70;;
68744;SDS011;66104;45.456;11.064;2023-04-01T03:36:00;20.40;;;13.80;;
68744;SDS011;66104;45.456;11.064;2023-04-01T03:38:37;21.30;;;12.80;;
68744;SDS011;66104;45.456;11.064;2023-04-01T03:41:15;19.50;;;12.60;;
68744;SDS011;66104;45.456;11.064;2023-04-01T03:43:55;17.50;;;11.80;;
68744;SDS011;66104;45.456;11.064;2023-04-01T03:46:32;18.90;;;12.50;;
68744;SDS011;66104;45.456;11.064;2023-04-01T03:49:10;18.90;;;12.40;;
68744;SDS011;66104;45.456;11.064;2023-04-01T03:51:46;19.70;;;12.30;;
68744;SDS011;66104;45.456;11.064;2023-04-01T03:54:23;21.50;;;12.40;;
68744;SDS011;66104;45.456;11.064;2023-04-01T03:57:02;20.00;;;12.40;;
68744;SDS011;66104;45.456;11.064;2023-04-01T03:59:40;20.70;;;11.40;;
68744;SDS011;66104;45.456;11.064;2023-04-01T04:02:16;19.30;;;12.20;;
68744;SDS011;66104;45.456;11.064;2023-04-01T04:04:52;18.00;;;11.80;;
68744;SDS011;66104;45.456;11.064;2023-04-01T04:07:30;19.40;;;11.70;;
68744;SDS011;66104;45.456;11.064;2023-04-01T04:10:11;19.00;;;12.10;;
68744;SDS011;66104;45.456;11.064;2023-04-01T04:12:48;17.10;;;12.10;;
68744;SDS011;66104;45.456;11.064;2023-04-01T04:15:26;18.80;;;12.70;;
68744;SDS011;66104;45.456;11.064;2023-04-01T04:18:02;20.40;;;13.40;;
68744;SDS011;66104;45.456;11.064;2023-04-01T04:20:46;19.80;;;12.40;;
68744;SDS011;66104;45.456;11.064;2023-04-01T04:23:22;19.00;;;12.40;;
68744;SDS011;66104;45.456;11.064;2023-04-01T04:26:02;20.30;;;13.80;;
68744;SDS011;66104;45.456;11.064;2023-04-01T04:28:40;18.90;;;13.70;;
68744;SDS011;66104;45.456;11.064;2023-04-01T04:31:22;25.90;;;17.20;;
68744;SDS011;66104;45.456;11.064;2023-04-01T04:34:01;25.20;;;16.30;;
68744;SDS011;66104;45.456;11.064;2023-04-01T04:36:39;25.30;;;16.70;;
68744;SDS011;66104;45.456;11.064;2023-04-01T04:39:15;28.90;;;17.80;;
68744;SDS011;66104;45.456;11.064;2023-04-01T04:41:53;24.50;;;16.70;;
68744;SDS011;66104;45.456;11.064;2023-04-01T04:44:32;31.30;;;17.10;;
68744;SDS011;66104;45.456;11.064;2023-04-01T04:47:09;24.10;;;16.40;;
68744;SDS011;66104;45.456;11.064;2023-04-01T04:49:46;19.60;;;13.50;;
68744;SDS011;66104;45.456;11.064;2023-04-01T04:52:24;20.70;;;13.90;;
68744;SDS011;66104;45.456;11.064;2023-04-01T04:55:01;20.50;;;13.00;;
68744;SDS011;66104;45.456;11.064;2023-04-01T04:57:40;22.40;;;12.70;;
68744;SDS011;66104;45.456;11.064;2023-04-01T05:00:19;19.30;;;12.80;;
68744;SDS011;66104;45.456;11.064;2023-04-01T05:03:00;22.20;;;12.90;;
68744;SDS011;66104;45.456;11.064;2023-04-01T05:05:38;21.30;;;12.90;;
68744;SDS011;66104;45.456;11.064;2023-04-01T05:08:21;25.50;;;13.40;;
68744;SDS011;66104;45.456;11.064;2023-04-01T05:10:59;18.70;;;11.60;;
68744;SDS011;66104;45.456;11.064;2023-04-01T05:13:36;18.60;;;12.30;;
68744;SDS011;66104;45.456;11.064;2023-04-01T05:16:14;21.30;;;12.70;;
68744;SDS011;66104;45.456;11.064;2023-04-01T05:18:51;17.90;;;11.60;;
68744;SDS011;66104;45.456;11.064;2023-04-01T05:21:29;18.00;;;11.00;;
68744;SDS011;66104;45.456;11.064;2023-04-01T05:24:09;18.80;;;11.00;;
68744;SDS011;66104;45.456;11.064;2023-04-01T05:26:46;17.50;;;11.50;;
68744;SDS011;66104;45.456;11.064;2023-04-01T05:29:23;14.00;;;10.10;;
68744;SDS011;66104;45.456;11.064;2023-04-01T05:32:07;16.80;;;10.50;;
68744;SDS011;66104;45.456;11.064;2023-04-01T05:34:44;15.70;;;9.90;;
68744;SDS011;66104;45.456;11.064;2023-04-01T05:37:24;13.80;;;9.30;;
68744;SDS011;66104;45.456;11.064;2023-04-01T05:40:03;13.30;;;8.50;;
68744;SDS011;66104;45.456;11.064;2023-04-01T05:42:45;15.50;;;10.00;;
68744;SDS011;66104;45.456;11.064;2023-04-01T05:45:22;19.40;;;10.80;;
68744;SDS011;66104;45.456;11.064;2023-04-01T05:48:17;14.90;;;8.80;;
68744;SDS011;66104;45.456;11.064;2023-04-01T05:50:54;18.10;;;8.90;;
68744;SDS011;66104;45.456;11.064;2023-04-01T05:53:32;13.50;;;9.50;;
68744;SDS011;66104;45.456;11.064;2023-04-01T05:56:10;14.20;;;7.60;;
68744;SDS011;66104;45.456;11.064;2023-04-01T05:58:53;13.80;;;8.20;;
68744;SDS011;66104;45.456;11.064;2023-04-01T06:01:29;12.40;;;7.70;;
68744;SDS011;66104;45.456;11.064;2023-04-01T06:04:09;17.40;;;9.40;;
68744;SDS011;66104;45.456;11.064;2023-04-01T06:06:48;17.80;;;10.40;;
68744;SDS011;66104;45.456;11.064;2023-04-01T06:09:29;16.40;;;9.80;;
68744;SDS011;66104;45.456;11.064;2023-04-01T06:12:23;14.60;;;9.20;;
68744;SDS011;66104;45.456;11.064;2023-04-01T06:15:36;14.00;;;8.30;;
68744;SDS011;66104;45.456;11.064;2023-04-01T06:28:41;14.60;;;10.10;;
68744;SDS011;66104;45.456;11.064;2023-04-01T06:34:58;19.00;;;12.20;;
68744;SDS011;66104;45.456;11.064;2023-04-01T06:41:32;19.60;;;12.50;;
68744;SDS011;66104;45.456;11.064;2023-04-01T06:44:35;21.20;;;13.20;;
68744;SDS011;66104;45.456;11.064;2023-04-01T06:47:49;19.00;;;12.60;;
68744;SDS011;66104;45.456;11.064;2023-04-01T06:50:51;18.30;;;11.70;;
68744;SDS011;66104;45.456;11.064;2023-04-01T06:54:07;17.10;;;11.30;;
68744;SDS011;66104;45.456;11.064;2023-04-01T06:57:29;16.60;;;10.10;;
68744;SDS011;66104;45.456;11.064;2023-04-01T07:00:19;17.60;;;9.80;;
68744;SDS011;66104;45.456;11.064;2023-04-01T07:03:10;16.60;;;9.20;;
68744;SDS011;66104;45.456;11.064;2023-04-01T07:06:23;17.30;;;10.00;;
68744;SDS011;66104;45.456;11.064;2023-04-01T07:09:12;17.70;;;9.60;;
68744;SDS011;66104;45.456;11.064;2023-04-01T07:12:19;13.40;;;9.50;;
68744;SDS011;66104;45.456;11.064;2023-04-01T07:15:28;16.60;;;11.60;;
68744;SDS011;66104;45.456;11.064;2023-04-01T07:18:15;16.50;;;9.30;;
68744;SDS011;66104;45.456;11.064;2023-04-01T07:20:57;15.20;;;10.30;;
68744;SDS011;66104;45.456;11.064;2023-04-01T07:23:40;17.20;;;11.30;;
68744;SDS011;66104;45.456;11.064;2023-04-01T07:26:32;20.20;;;13.80;;
68744;SDS011;66104;45.456;11.064;2023-04-01T07:29:18;24.90;;;15.10;;
68744;SDS011;66104;45.456;11.064;2023-04-01T07:32:13;22.60;;;14.80;;
68744;SDS011;66104;45.456;11.064;2023-04-01T07:35:03;18.10;;;13.20;;
68744;SDS011;66104;45.456;11.064;2023-04-01T07:40:51;23.70;;;13.40;;
68744;SDS011;66104;45.456;11.064;2023-04-01T07:43:44;26.90;;;18.50;;
68744;SDS011;66104;45.456;11.064;2023-04-01T07:49:40;32.50;;;17.00;;
68744;SDS011;66104;45.456;11.064;2023-04-01T07:52:29;29.70;;;18.80;;
68744;SDS011;66104;45.456;11.064;2023-04-01T07:55:19;33.20;;;20.20;;
68744;SDS011;66104;45.456;11.064;2023-04-01T07:58:07;30.10;;;20.00;;
68744;SDS011;66104;45.456;11.064;2023-04-01T08:00:57;31.80;;;20.40;;
68744;SDS011;66104;45.456;11.064;2023-04-01T08:03:54;33.10;;;21.00;;
68744;SDS011;66104;45.456;11.064;2023-04-01T08:06:53;31.90;;;21.60;;
68744;SDS011;66104;45.456;11.064;2023-04-01T08:09:43;36.80;;;24.60;;
68744;SDS011;66104;45.456;11.064;2023-04-01T08:13:00;39.20;;;24.50;;
68744;SDS011;66104;45.456;11.064;2023-04-01T08:16:15;36.00;;;25.00;;
68744;SDS011;66104;45.456;11.064;2023-04-01T08:19:06;43.00;;;26.30;;
68744;SDS011;66104;45.456;11.064;2023-04-01T08:21:54;30.30;;;22.00;;
68744;SDS011;66104;45.456;11.064;2023-04-01T08:24:39;30.70;;;21.80;;
68744;SDS011;66104;45.456;11.064;2023-04-01T08:27:28;35.20;;;24.40;;
68744;SDS011;66104;45.456;11.064;2023-04-01T08:30:19;39.70;;;27.10;;
68744;SDS011;66104;45.456;11.064;2023-04-01T08:32:59;36.40;;;24.80;;
68744;SDS011;66104;45.456;11.064;2023-04-01T08:35:44;40.00;;;25.80;;
68744;SDS011;66104;45.456;11.064;2023-04-01T08:38:29;44.00;;;26.40;;
68744;SDS011;66104;45.456;11.064;2023-04-01T08:41:22;44.50;;;26.70;;
68744;SDS011;66104;45.456;11.064;2023-04-01T08:44:49;39.00;;;25.30;;
68744;SDS011;66104;45.456;11.064;2023-04-01T08:47:54;36.30;;;24.60;;
68744;SDS011;66104;45.456;11.064;2023-04-01T08:58:27;46.50;;;29.40;;
68744;SDS011;66104;45.456;11.064;2023-04-01T09:01:32;39.00;;;24.30;;
68744;SDS011;66104;45.456;11.064;2023-04-01T09:08:06;40.60;;;27.00;;
68744;SDS011;66104;45.456;11.064;2023-04-01T09:10:59;37.70;;;25.00;;
68744;SDS011;66104;45.456;11.064;2023-04-01T09:14:21;34.70;;;22.90;;
68744;SDS011;66104;45.456;11.064;2023-04-01T09:17:41;34.30;;;20.50;;
68744;SDS011;66104;45.456;11.064;2023-04-01T09:28:00;37.30;;;24.50;;
68744;SDS011;66104;45.456;11.064;2023-04-01T09:30:58;31.60;;;22.40;;
68744;SDS011;66104;45.456;11.064;2023-04-01T09:34:27;36.30;;;21.70;;
68744;SDS011;66104;45.456;11.064;2023-04-01T09:37:20;35.50;;;23.50;;
68744;SDS011;66104;45.456;11.064;2023-04-01T09:40:18;27.00;;;19.30;;
68744;SDS011;66104;45.456;11.064;2023-04-01T09:43:25;27.70;;;19.00;;
68744;SDS011;66104;45.456;11.064;2023-04-01T09:46:27;30.40;;;19.10;;
68744;SDS011;66104;45.456;11.064;2023-04-01T09:49:46;27.00;;;18.90;;
68744;SDS011;66104;45.456;11.064;2023-04-01T09:52:42;27.80;;;18.00;;
68744;SDS011;66104;45.456;11.064;2023-04-01T10:03:16;32.60;;;19.40;;
68744;SDS011;66104;45.456;11.064;2023-04-01T10:06:41;23.40;;;16.70;;
68744;SDS011;66104;45.456;11.064;2023-04-01T10:16:59;24.40;;;16.60;;
68744;SDS011;66104;45.456;11.064;2023-04-01T10:20:08;24.10;;;16.70;;
68744;SDS011;66104;45.456;11.064;2023-04-01T10:33:56;23.10;;;16.50;;
68744;SDS011;66104;45.456;11.064;2023-04-01T10:36:56;24.30;;;16.40;;
68744;SDS011;66104;45.456;11.064;2023-04-01T10:39:59;26.00;;;17.10;;
68744;SDS011;66104;45.456;11.064;2023-04-01T10:43:36;23.90;;;16.40;;
68744;SDS011;66104;45.456;11.064;2023-04-01T10:57:01;23.50;;;15.90;;
68744;SDS011;66104;45.456;11.064;2023-04-01T11:00:21;20.80;;;15.20;;
68744;SDS011;66104;45.456;11.064;2023-04-01T11:04:20;26.20;;;16.70;;
68744;SDS011;66104;45.456;11.064;2023-04-01T11:11:48;23.00;;;14.50;;
68744;SDS011;66104;45.456;11.064;2023-04-01T11:22:08;19.80;;;13.40;;
68744;SDS011;66104;45.456;11.064;2023-04-01T11:28:58;17.10;;;10.70;;
68744;SDS011;66104;45.456;11.064;2023-04-01T11:32:01;16.00;;;11.40;;
68744;SDS011;66104;45.456;11.064;2023-04-01T11:35:04;17.10;;;11.10;;
68744;SDS011;66104;45.456;11.064;2023-04-01T11:38:09;14.70;;;10.00;;
68744;SDS011;66104;45.456;11.064;2023-04-01T11:41:46;11.90;;;9.30;;
68744;SDS011;66104;45.456;11.064;2023-04-01T11:44:58;13.10;;;8.40;;
68744;SDS011;66104;45.456;11.064;2023-04-01T11:48:12;15.70;;;9.00;;
68744;SDS011;66104;45.456;11.064;2023-04-01T11:51:10;10.90;;;8.20;;
68744;SDS011;66104;45.456;11.064;2023-04-01T11:54:10;11.40;;;7.60;;
68744;SDS011;66104;45.456;11.064;2023-04-01T11:57:06;12.80;;;8.30;;
68744;SDS011;66104;45.456;11.064;2023-04-01T12:00:14;12.20;;;7.70;;
68744;SDS011;66104;45.456;11.064;2023-04-01T12:03:18;9.60;;;7.90;;
68744;SDS011;66104;45.456;11.064;2023-04-01T12:06:12;11.20;;;7.60;;
68744;SDS011;66104;45.456;11.064;2023-04-01T12:09:00;9.40;;;6.90;;
68744;SDS011;66104;45.456;11.064;2023-04-01T12:11:48;11.30;;;6.40;;
68744;SDS011;66104;45.456;11.064;2023-04-01T12:14:36;9.30;;;6.50;;
68744;SDS011;66104;45.456;11.064;2023-04-01T12:17:30;8.30;;;6.20;;
68744;SDS011;66104;45.456;11.064;2023-04-01T12:20:33;9.70;;;7.40;;
68744;SDS011;66104;45.456;11.064;2023-04-01T12:26:49;11.90;;;5.40;;
68744;SDS011;66104;45.456;11.064;2023-04-01T12:32:57;8.20;;;5.30;;
68744;SDS011;66104;45.456;11.064;2023-04-01T12:35:56;8.70;;;5.10;;
68744;SDS011;66104;45.456;11.064;2023-04-01T12:38:47;6.90;;;3.80;;
68744;SDS011;66104;45.456;11.064;2023-04-01T12:41:45;4.00;;;2.50;;
68744;SDS011;66104;45.456;11.064;2023-04-01T12:44:41;5.10;;;2.90;;
68744;SDS011;66104;45.456;11.064;2023-04-01T12:54:39;6.70;;;3.70;;
68744;SDS011;66104;45.456;11.064;2023-04-01T13:04:51;5.30;;;3.30;;
68744;SDS011;66104;45.456;11.064;2023-04-01T13:07:58;5.40;;;3.30;;
68744;SDS011;66104;45.456;11.064;2023-04-01T13:11:06;4.70;;;3.70;;
68744;SDS011;66104;45.456;11.064;2023-04-01T13:14:02;7.40;;;3.70;;
68744;SDS011;66104;45.456;11.064;2023-04-01T13:17:06;5.20;;;3.20;;
68744;SDS011;66104;45.456;11.064;2023-04-01T13:19:53;5.40;;;3.10;;
68744;SDS011;66104;45.456;11.064;2023-04-01T13:22:48;6.60;;;3.40;;
68744;SDS011;66104;45.456;11.064;2023-04-01T13:25:38;4.50;;;2.40;;
68744;SDS011;66104;45.456;11.064;2023-04-01T13:28:35;4.90;;;2.90;;
68744;SDS011;66104;45.456;11.064;2023-04-01T13:31:31;3.70;;;2.10;;
68744;SDS011;66104;45.456;11.064;2023-04-01T13:34:46;2.60;;;1.30;;
68744;SDS011;66104;45.456;11.064;2023-04-01T13:37:46;3.00;;;1.70;;
68744;SDS011;66104;45.456;11.064;2023-04-01T13:40:43;5.20;;;2.10;;
68744;SDS011;66104;45.456;11.064;2023-04-01T13:43:37;3.30;;;2.20;;
68744;SDS011;66104;45.456;11.064;2023-04-01T13:46:27;4.00;;;1.80;;
68744;SDS011;66104;45.456;11.064;2023-04-01T13:52:59;2.40;;;1.30;;
68744;SDS011;66104;45.456;11.064;2023-04-01T13:55:56;4.10;;;1.60;;
68744;SDS011;66104;45.456;11.064;2023-04-01T13:59:05;2.40;;;1.30;;
68744;SDS011;66104;45.456;11.064;2023-04-01T14:02:18;3.60;;;2.00;;
68744;SDS011;66104;45.456;11.064;2023-04-01T14:08:33;4.30;;;2.50;;
68744;SDS011;66104;45.456;11.064;2023-04-01T14:11:21;3.70;;;2.20;;
68744;SDS011;66104;45.456;11.064;2023-04-01T14:14:09;3.60;;;2.40;;
68744;SDS011;66104;45.456;11.064;2023-04-01T14:17:12;3.20;;;2.30;;
68744;SDS011;66104;45.456;11.064;2023-04-01T14:23:12;3.20;;;2.20;;
68744;SDS011;66104;45.456;11.064;2023-04-01T14:29:41;4.90;;;2.80;;
68744;SDS011;66104;45.456;11.064;2023-04-01T14:32:37;4.40;;;2.50;;
68744;SDS011;66104;45.456;11.064;2023-04-01T14:35:38;4.30;;;2.70;;
68744;SDS011;66104;45.456;11.064;2023-04-01T14:38:29;5.10;;;2.60;;
68744;SDS011;66104;45.456;11.064;2023-04-01T14:41:28;4.10;;;2.50;;
68744;SDS011;66104;45.456;11.064;2023-04-01T14:44:29;4.50;;;3.00;;
68744;SDS011;66104;45.456;11.064;2023-04-01T14:50:24;3.10;;;2.50;;
68744;SDS011;66104;45.456;11.064;2023-04-01T14:53:16;4.50;;;2.80;;
68744;SDS011;66104;45.456;11.064;2023-04-01T14:56:03;5.00;;;2.80;;
68744;SDS011;66104;45.456;11.064;2023-04-01T14:58:46;5.50;;;3.50;;
68744;SDS011;66104;45.456;11.064;2023-04-01T15:01:37;5.10;;;3.60;;
68744;SDS011;66104;45.456;11.064;2023-04-01T15:14:13;5.80;;;3.30;;
68744;SDS011;66104;45.456;11.064;2023-04-01T15:17:27;4.10;;;2.60;;
68744;SDS011;66104;45.456;11.064;2023-04-01T15:20:36;4.70;;;3.10;;
68744;SDS011;66104;45.456;11.064;2023-04-01T15:23:31;4.40;;;3.40;;
68744;SDS011;66104;45.456;11.064;2023-04-01T15:26:31;5.60;;;3.20;;
68744;SDS011;66104;45.456;11.064;2023-04-01T15:32:51;4.30;;;2.40;;
68744;SDS011;66104;45.456;11.064;2023-04-01T15:35:48;4.80;;;2.00;;
68744;SDS011;66104;45.456;11.064;2023-04-01T15:38:38;6.40;;;1.80;;
68744;SDS011;66104;45.456;11.064;2023-04-01T15:41:23;2.90;;;1.50;;
68744;SDS011;66104;45.456;11.064;2023-04-01T15:44:33;4.40;;;1.80;;
68744;SDS011;66104;45.456;11.064;2023-04-01T15:50:50;4.60;;;2.10;;
68744;SDS011;66104;45.456;11.064;2023-04-01T15:57:04;5.00;;;1.70;;
68744;SDS011;66104;45.456;11.064;2023-04-01T16:03:20;3.90;;;1.70;;
68744;SDS011;66104;45.456;11.064;2023-04-01T16:06:30;2.70;;;1.50;;
68744;SDS011;66104;45.456;11.064;2023-04-01T16:09:45;4.00;;;1.30;;
68744;SDS011;66104;45.456;11.064;2023-04-01T16:12:43;3.50;;;1.30;;
68744;SDS011;66104;45.456;11.064;2023-04-01T16:15:39;2.50;;;1.30;;
68744;SDS011;66104;45.456;11.064;2023-04-01T16:18:38;3.20;;;1.60;;
68744;SDS011;66104;45.456;11.064;2023-04-01T16:21:41;3.90;;;1.50;;
68744;SDS011;66104;45.456;11.064;2023-04-01T16:24:34;3.20;;;1.30;;
68744;SDS011;66104;45.456;11.064;2023-04-01T16:27:16;2.20;;;1.10;;
68744;SDS011;66104;45.456;11.064;2023-04-01T16:30:03;3.50;;;1.20;;
68744;SDS011;66104;45.456;11.064;2023-04-01T16:33:04;1.70;;;1.10;;
68744;SDS011;66104;45.456;11.064;2023-04-01T16:35:52;2.70;;;1.30;;
68744;SDS011;66104;45.456;11.064;2023-04-01T16:38:40;3.50;;;1.30;;
68744;SDS011;66104;45.456;11.064;2023-04-01T16:41:29;1.90;;;1.10;;
68744;SDS011;66104;45.456;11.064;2023-04-01T16:44:19;1.80;;;1.00;;
68744;SDS011;66104;45.456;11.064;2023-04-01T16:46:58;1.90;;;1.00;;
68744;SDS011;66104;45.456;11.064;2023-04-01T16:49:44;4.20;;;1.00;;
68744;SDS011;66104;45.456;11.064;2023-04-01T16:52:40;3.20;;;1.10;;
68744;SDS011;66104;45.456;11.064;2023-04-01T16:55:41;2.00;;;1.20;;
68744;SDS011;66104;45.456;11.064;2023-04-01T16:58:24;2.00;;;1.20;;
68744;SDS011;66104;45.456;11.064;2023-04-01T17:01:12;1.80;;;1.20;;
68744;SDS011;66104;45.456;11.064;2023-04-01T17:04:00;3.50;;;1.30;;
68744;SDS011;66104;45.456;11.064;2023-04-01T17:06:52;3.20;;;1.10;;
68744;SDS011;66104;45.456;11.064;2023-04-01T17:12:58;2.10;;;1.20;;
68744;SDS011;66104;45.456;11.064;2023-04-01T17:15:51;3.30;;;1.10;;
68744;SDS011;66104;45.456;11.064;2023-04-01T17:18:41;4.20;;;1.60;;
68744;SDS011;66104;45.456;11.064;2023-04-01T17:21:38;4.20;;;2.20;;
68744;SDS011;66104;45.456;11.064;2023-04-01T17:24:45;4.10;;;2.20;;
68744;SDS011;66104;45.456;11.064;2023-04-01T17:27:44;4.30;;;1.60;;
68744;SDS011;66104;45.456;11.064;2023-04-01T17:30:30;2.00;;;1.30;;
68744;SDS011;66104;45.456;11.064;2023-04-01T17:36:27;3.70;;;2.10;;
68744;SDS011;66104;45.456;11.064;2023-04-01T17:39:29;4.30;;;1.70;;
68744;SDS011;66104;45.456;11.064;2023-04-01T17:42:19;4.00;;;2.00;;
68744;SDS011;66104;45.456;11.064;2023-04-01T17:45:16;3.50;;;1.80;;
68744;SDS011;66104;45.456;11.064;2023-04-01T17:48:08;6.50;;;2.30;;
68744;SDS011;66104;45.456;11.064;2023-04-01T17:51:07;6.10;;;2.80;;
68744;SDS011;66104;45.456;11.064;2023-04-01T17:53:57;9.70;;;4.30;;
68744;SDS011;66104;45.456;11.064;2023-04-01T17:56:45;7.50;;;3.40;;
68744;SDS011;66104;45.456;11.064;2023-04-01T17:59:38;12.90;;;7.80;;
68744;SDS011;66104;45.456;11.064;2023-04-01T18:02:27;12.10;;;6.10;;
68744;SDS011;66104;45.456;11.064;2023-04-01T18:05:29;15.20;;;8.50;;
68744;SDS011;66104;45.456;11.064;2023-04-01T18:08:28;15.30;;;8.30;;
68744;SDS011;66104;45.456;11.064;2023-04-01T18:11:20;11.00;;;5.20;;
68744;SDS011;66104;45.456;11.064;2023-04-01T18:14:44;7.10;;;3.20;;
68744;SDS011;66104;45.456;11.064;2023-04-01T18:17:55;5.60;;;3.60;;
68744;SDS011;66104;45.456;11.064;2023-04-01T18:20:50;6.10;;;2.70;;
68744;SDS011;66104;45.456;11.064;2023-04-01T18:23:41;6.10;;;3.20;;
68744;SDS011;66104;45.456;11.064;2023-04-01T18:26:33;8.20;;;3.30;;
68744;SDS011;66104;45.456;11.064;2023-04-01T18:29:22;6.20;;;2.60;;
68744;SDS011;66104;45.456;11.064;2023-04-01T18:32:17;4.80;;;2.80;;
68744;SDS011;66104;45.456;11.064;2023-04-01T18:35:17;5.50;;;2.60;;
68744;SDS011;66104;45.456;11.064;2023-04-01T18:38:04;8.40;;;3.40;;
68744;SDS011;66104;45.456;11.064;2023-04-01T18:40:51;7.50;;;3.90;;
68744;SDS011;66104;45.456;11.064;2023-04-01T18:43:38;10.60;;;3.90;;
68744;SDS011;66104;45.456;11.064;2023-04-01T18:46:33;6.40;;;3.10;;
68744;SDS011;66104;45.456;11.064;2023-04-01T18:49:20;6.20;;;3.30;;
68744;SDS011;66104;45.456;11.064;2023-04-01T18:52:02;9.60;;;2.90;;
68744;SDS011;66104;45.456;11.064;2023-04-01T18:55:15;8.20;;;3.70;;
68744;SDS011;66104;45.456;11.064;2023-04-01T18:58:11;5.80;;;3.20;;
68744;SDS011;66104;45.456;11.064;2023-04-01T19:01:03;7.80;;;3.70;;
68744;SDS011;66104;45.456;11.064;2023-04-01T19:03:51;5.30;;;3.10;;
68744;SDS011;66104;45.456;11.064;2023-04-01T19:06:47;8.80;;;3.70;;
68744;SDS011;66104;45.456;11.064;2023-04-01T19:09:30;6.50;;;3.50;;
68744;SDS011;66104;45.456;11.064;2023-04-01T19:12:34;9.30;;;3.50;;
68744;SDS011;66104;45.456;11.064;2023-04-01T19:15:30;6.80;;;2.90;;
68744;SDS011;66104;45.456;11.064;2023-04-01T19:21:41;5.70;;;3.00;;